»·PEaware :: N142YK L88-KSBP

N142YK :: L88-KSBP

FLIGHT INFORMATION

Flight Status: Arrived
Operator: Privately registered:
United States
More flights under this callsign
Pilot: Pierre François G. (17817)
Aircraft: Unknown
(P28U)
More flights by this aircraft type
Origin: L88 New Cuyama
United States
Destination: KSBP San Luis Co Regl
United States
More flights between these airports :: More routes between these airports
Route: DCT
File this flight plan on PilotEdge
Remarks: CAT2
Altitude:
(Current/Filed)
6,500ft
Speed:
(Current/Filed)
140kts
Departed: 12-Jan-18 12:46 PM
Arrived: 12-Jan-18 01:12 PM
Distance/Time
Traveled:
50nm/0:25
Distance/Time
To Go:
Arrived

Flight Plot

Page will automatically refresh every two minutes.


Map Options




Map Legend


Flown Route
Filed Route
Departure Airport
Arrival Airport
Navaid (VOR, NDB)
Fix

Horizontal Profiles

Position Reports

Time Latitude Longitude Heading Altitude Ground
Speed
12-Jan-18 12:29 34.942859 -119.690283 204 2206ft 0kts
12-Jan-18 12:30 34.942859 -119.690283 204 2206ft 0kts
12-Jan-18 12:31 34.942859 -119.690283 204 2206ft 0kts
12-Jan-18 12:32 34.942859 -119.690283 204 2206ft 0kts
12-Jan-18 12:33 34.942859 -119.690283 204 2206ft 0kts
12-Jan-18 12:34 34.942859 -119.690283 204 2206ft 0kts
12-Jan-18 12:35 34.942859 -119.690283 204 2206ft 0kts
12-Jan-18 12:36 34.942859 -119.690283 204 2206ft 0kts
12-Jan-18 12:37 34.942859 -119.690283 204 2206ft 0kts
12-Jan-18 12:38 34.942859 -119.690283 204 2206ft 0kts
12-Jan-18 12:39 34.942859 -119.690283 204 2206ft 0kts
12-Jan-18 12:40 34.942859 -119.690283 204 2206ft 0kts
12-Jan-18 12:41 34.942859 -119.690283 204 2206ft 0kts
12-Jan-18 12:42 34.942859 -119.690283 204 2206ft 0kts
12-Jan-18 12:43 34.942859 -119.690283 204 2206ft 0kts
12-Jan-18 12:44 34.942855 -119.690286 204 2206ft 0kts
12-Jan-18 12:45 34.942812 -119.690325 231 2206ft 0kts
12-Jan-18 12:46 34.942812 -119.690325 231 2206ft 0kts
12-Jan-18 12:47 34.942812 -119.690325 232 2206ft 0kts
12-Jan-18 12:48 34.942803 -119.690339 234 2206ft 0kts
12-Jan-18 12:49 34.942463 -119.691207 172 2206ft 5kts
12-Jan-18 12:50 34.938930 -119.682987 116 2206ft 37kts
12-Jan-18 12:51 34.937692 -119.680087 294 2206ft 0kts
12-Jan-18 12:52 34.942471 -119.691127 301 2541ft 88kts
12-Jan-18 12:53 34.957192 -119.721298 301 3927ft 111kts
12-Jan-18 12:54 34.973799 -119.754606 304 5163ft 117kts
12-Jan-18 12:55 34.989094 -119.789315 300 6395ft 116kts
12-Jan-18 12:56 35.005759 -119.829637 298 6664ft 144kts
12-Jan-18 12:57 35.022926 -119.875415 296 6600ft 151kts
12-Jan-18 12:58 35.039406 -119.922915 295 6453ft 152kts
12-Jan-18 12:59 35.053722 -119.969707 292 6335ft 152kts
12-Jan-18 13:00 35.069151 -120.011643 299 6366ft 148kts
12-Jan-18 13:01 35.087046 -120.056642 298 6384ft 146kts
12-Jan-18 13:02 35.101395 -120.103343 293 6358ft 149kts
12-Jan-18 13:03 35.112721 -120.147855 296 6375ft 147kts
12-Jan-18 13:04 35.127081 -120.194455 292 6384ft 146kts
12-Jan-18 13:05 35.139053 -120.240765 295 6565ft 141kts
12-Jan-18 13:06 35.151846 -120.286445 291 6618ft 142kts
12-Jan-18 13:07 35.161446 -120.328854 293 6618ft 134kts
12-Jan-18 13:08 35.173513 -120.371235 296 6545ft 132kts
12-Jan-18 13:09 35.182656 -120.413901 287 6234ft 131kts
12-Jan-18 13:10 35.187358 -120.456086 273 5607ft 119kts
12-Jan-18 13:11 35.186636 -120.487557 283 4005ft 83kts
12-Jan-18 13:12 35.190595 -120.516411 283 3356ft 86kts
12-Jan-18 13:13 35.194298 -120.545232 288 2933ft 81kts
12-Jan-18 13:14 35.200734 -120.572100 294 2104ft 80kts
12-Jan-18 13:15 35.210406 -120.594158 310 1429ft 65kts
12-Jan-18 13:16 35.220068 -120.611353 309 901ft 56kts
12-Jan-18 13:17 35.229259 -120.626685 308 424ft 57kts
12-Jan-18 13:18 35.235389 -120.636070 68 214ft 0kts
12-Jan-18 13:19 35.235391 -120.636063 66 214ft 0kts
12-Jan-18 13:20 35.237684 -120.638168 22 214ft 7kts
12-Jan-18 13:21 35.238264 -120.638251 84 214ft 0kts
12-Jan-18 13:22 35.238264 -120.638251 84 214ft 0kts
12-Jan-18 13:23 35.238264 -120.638251 84 214ft 0kts
12-Jan-18 13:24 35.238264 -120.638251 84 214ft 0kts

Navigation Log

Ident Type
Flight plan parsing failed, navigation log unavailable